sensor_id;sensor_type;location;lat;lon;timestamp;P1;durP1;ratioP1;P2;durP2;ratioP2
38264;SDS011;24062;47.480;8.768;2022-10-16T00:00:37;8.50;;;1.90;;
38264;SDS011;24062;47.480;8.768;2022-10-16T00:03:06;3.90;;;2.00;;
38264;SDS011;24062;47.480;8.768;2022-10-16T00:05:37;6.63;;;2.10;;
38264;SDS011;24062;47.480;8.768;2022-10-16T00:08:06;6.80;;;1.83;;
38264;SDS011;24062;47.480;8.768;2022-10-16T00:10:33;5.90;;;2.13;;
38264;SDS011;24062;47.480;8.768;2022-10-16T00:13:02;4.13;;;1.90;;
38264;SDS011;24062;47.480;8.768;2022-10-16T00:15:29;4.63;;;1.83;;
38264;SDS011;24062;47.480;8.768;2022-10-16T00:17:56;4.10;;;1.70;;
38264;SDS011;24062;47.480;8.768;2022-10-16T00:20:23;4.63;;;2.17;;
38264;SDS011;24062;47.480;8.768;2022-10-16T00:22:50;9.70;;;2.20;;
38264;SDS011;24062;47.480;8.768;2022-10-16T00:25:17;4.10;;;1.60;;
38264;SDS011;24062;47.480;8.768;2022-10-16T00:27:44;4.60;;;1.47;;
38264;SDS011;24062;47.480;8.768;2022-10-16T00:30:12;2.33;;;1.57;;
38264;SDS011;24062;47.480;8.768;2022-10-16T00:32:39;5.43;;;1.63;;
38264;SDS011;24062;47.480;8.768;2022-10-16T00:35:06;3.43;;;1.33;;
38264;SDS011;24062;47.480;8.768;2022-10-16T00:37:33;3.97;;;1.90;;
38264;SDS011;24062;47.480;8.768;2022-10-16T00:40:00;3.90;;;1.63;;
38264;SDS011;24062;47.480;8.768;2022-10-16T00:42:27;4.80;;;1.70;;
38264;SDS011;24062;47.480;8.768;2022-10-16T00:44:54;1.70;;;1.40;;
38264;SDS011;24062;47.480;8.768;2022-10-16T00:47:26;12.13;;;1.80;;
38264;SDS011;24062;47.480;8.768;2022-10-16T00:49:58;2.77;;;1.63;;
38264;SDS011;24062;47.480;8.768;2022-10-16T00:52:29;5.87;;;1.50;;
38264;SDS011;24062;47.480;8.768;2022-10-16T00:54:56;4.93;;;1.60;;
38264;SDS011;24062;47.480;8.768;2022-10-16T00:57:24;10.03;;;1.83;;
38264;SDS011;24062;47.480;8.768;2022-10-16T00:59:51;6.87;;;1.77;;
38264;SDS011;24062;47.480;8.768;2022-10-16T01:02:19;3.87;;;1.70;;
38264;SDS011;24062;47.480;8.768;2022-10-16T01:04:48;5.10;;;1.80;;
38264;SDS011;24062;47.480;8.768;2022-10-16T01:07:20;5.93;;;1.60;;
38264;SDS011;24062;47.480;8.768;2022-10-16T01:09:59;3.63;;;1.50;;
38264;SDS011;24062;47.480;8.768;2022-10-16T01:12:35;8.07;;;2.57;;
38264;SDS011;24062;47.480;8.768;2022-10-16T01:15:10;3.87;;;1.80;;
38264;SDS011;24062;47.480;8.768;2022-10-16T01:17:45;6.00;;;2.07;;
38264;SDS011;24062;47.480;8.768;2022-10-16T01:20:18;7.83;;;2.13;;
38264;SDS011;24062;47.480;8.768;2022-10-16T01:23:05;4.23;;;1.80;;
38264;SDS011;24062;47.480;8.768;2022-10-16T01:25:43;6.57;;;2.10;;
38264;SDS011;24062;47.480;8.768;2022-10-16T01:28:38;8.90;;;1.60;;
38264;SDS011;24062;47.480;8.768;2022-10-16T01:31:10;5.00;;;1.97;;
38264;SDS011;24062;47.480;8.768;2022-10-16T01:33:42;3.20;;;1.57;;
38264;SDS011;24062;47.480;8.768;2022-10-16T01:36:13;3.87;;;2.00;;
38264;SDS011;24062;47.480;8.768;2022-10-16T01:38:43;3.30;;;1.43;;
38264;SDS011;24062;47.480;8.768;2022-10-16T01:41:13;3.07;;;1.47;;
38264;SDS011;24062;47.480;8.768;2022-10-16T01:43:45;4.30;;;1.70;;
38264;SDS011;24062;47.480;8.768;2022-10-16T01:46:16;2.13;;;1.40;;
38264;SDS011;24062;47.480;8.768;2022-10-16T01:48:46;4.97;;;1.60;;
38264;SDS011;24062;47.480;8.768;2022-10-16T01:51:15;2.50;;;1.40;;
38264;SDS011;24062;47.480;8.768;2022-10-16T01:53:45;5.10;;;1.73;;
38264;SDS011;24062;47.480;8.768;2022-10-16T01:56:15;5.70;;;1.87;;
38264;SDS011;24062;47.480;8.768;2022-10-16T01:58:48;3.60;;;1.70;;
38264;SDS011;24062;47.480;8.768;2022-10-16T02:01:19;3.93;;;1.43;;
38264;SDS011;24062;47.480;8.768;2022-10-16T02:03:49;2.13;;;1.13;;
38264;SDS011;24062;47.480;8.768;2022-10-16T02:06:19;6.73;;;6.03;;
38264;SDS011;24062;47.480;8.768;2022-10-16T02:08:47;2.60;;;1.37;;
38264;SDS011;24062;47.480;8.768;2022-10-16T02:11:14;1.63;;;1.20;;
38264;SDS011;24062;47.480;8.768;2022-10-16T02:13:42;2.93;;;1.20;;
38264;SDS011;24062;47.480;8.768;2022-10-16T02:16:14;6.17;;;1.90;;
38264;SDS011;24062;47.480;8.768;2022-10-16T02:18:41;15.20;;;1.90;;
38264;SDS011;24062;47.480;8.768;2022-10-16T02:21:10;2.33;;;1.10;;
38264;SDS011;24062;47.480;8.768;2022-10-16T02:23:43;4.83;;;1.50;;
38264;SDS011;24062;47.480;8.768;2022-10-16T02:26:16;4.13;;;1.43;;
38264;SDS011;24062;47.480;8.768;2022-10-16T02:28:52;10.60;;;2.03;;
38264;SDS011;24062;47.480;8.768;2022-10-16T02:31:24;3.80;;;1.90;;
38264;SDS011;24062;47.480;8.768;2022-10-16T02:33:54;3.20;;;1.50;;
38264;SDS011;24062;47.480;8.768;2022-10-16T02:36:24;3.20;;;1.73;;
38264;SDS011;24062;47.480;8.768;2022-10-16T02:38:52;7.83;;;1.43;;
38264;SDS011;24062;47.480;8.768;2022-10-16T02:41:20;2.00;;;1.37;;
38264;SDS011;24062;47.480;8.768;2022-10-16T02:43:47;5.60;;;1.70;;
38264;SDS011;24062;47.480;8.768;2022-10-16T02:46:14;2.03;;;1.50;;
38264;SDS011;24062;47.480;8.768;2022-10-16T02:48:44;3.57;;;1.67;;
38264;SDS011;24062;47.480;8.768;2022-10-16T02:51:11;3.43;;;1.60;;
38264;SDS011;24062;47.480;8.768;2022-10-16T02:53:37;6.47;;;1.60;;
38264;SDS011;24062;47.480;8.768;2022-10-16T02:56:04;5.50;;;1.60;;
38264;SDS011;24062;47.480;8.768;2022-10-16T02:58:31;6.47;;;1.60;;
38264;SDS011;24062;47.480;8.768;2022-10-16T03:00:58;4.00;;;1.50;;
38264;SDS011;24062;47.480;8.768;2022-10-16T03:03:25;9.53;;;1.40;;
38264;SDS011;24062;47.480;8.768;2022-10-16T03:05:53;3.27;;;1.53;;
38264;SDS011;24062;47.480;8.768;2022-10-16T03:08:20;2.30;;;1.70;;
38264;SDS011;24062;47.480;8.768;2022-10-16T03:10:50;6.00;;;1.80;;
38264;SDS011;24062;47.480;8.768;2022-10-16T03:13:17;6.17;;;1.80;;
38264;SDS011;24062;47.480;8.768;2022-10-16T03:15:45;2.10;;;1.50;;
38264;SDS011;24062;47.480;8.768;2022-10-16T03:18:12;3.37;;;1.23;;
38264;SDS011;24062;47.480;8.768;2022-10-16T03:20:39;5.70;;;2.00;;
38264;SDS011;24062;47.480;8.768;2022-10-16T03:23:07;3.90;;;1.53;;
38264;SDS011;24062;47.480;8.768;2022-10-16T03:25:34;5.00;;;1.37;;
38264;SDS011;24062;47.480;8.768;2022-10-16T03:28:01;2.80;;;1.53;;
38264;SDS011;24062;47.480;8.768;2022-10-16T03:30:28;8.20;;;1.50;;
38264;SDS011;24062;47.480;8.768;2022-10-16T03:32:55;4.27;;;1.53;;
38264;SDS011;24062;47.480;8.768;2022-10-16T03:35:22;10.30;;;1.80;;
38264;SDS011;24062;47.480;8.768;2022-10-16T03:37:50;3.10;;;1.30;;
38264;SDS011;24062;47.480;8.768;2022-10-16T03:40:18;8.37;;;1.40;;
38264;SDS011;24062;47.480;8.768;2022-10-16T03:42:45;2.90;;;1.43;;
38264;SDS011;24062;47.480;8.768;2022-10-16T03:45:12;5.00;;;1.90;;
38264;SDS011;24062;47.480;8.768;2022-10-16T03:47:39;3.33;;;1.57;;
38264;SDS011;24062;47.480;8.768;2022-10-16T03:50:07;2.10;;;1.70;;
38264;SDS011;24062;47.480;8.768;2022-10-16T03:52:34;4.57;;;2.20;;
38264;SDS011;24062;47.480;8.768;2022-10-16T03:55:01;8.03;;;1.70;;
38264;SDS011;24062;47.480;8.768;2022-10-16T03:57:29;2.40;;;1.90;;
38264;SDS011;24062;47.480;8.768;2022-10-16T03:59:56;4.10;;;2.00;;
38264;SDS011;24062;47.480;8.768;2022-10-16T04:02:23;2.40;;;1.73;;
38264;SDS011;24062;47.480;8.768;2022-10-16T04:04:50;3.80;;;2.33;;
38264;SDS011;24062;47.480;8.768;2022-10-16T04:07:17;3.43;;;2.00;;
38264;SDS011;24062;47.480;8.768;2022-10-16T04:09:44;3.70;;;1.67;;
38264;SDS011;24062;47.480;8.768;2022-10-16T04:12:11;7.00;;;1.80;;
38264;SDS011;24062;47.480;8.768;2022-10-16T04:14:39;3.77;;;1.67;;
38264;SDS011;24062;47.480;8.768;2022-10-16T04:17:06;4.07;;;1.60;;
38264;SDS011;24062;47.480;8.768;2022-10-16T04:19:33;3.90;;;1.73;;
38264;SDS011;24062;47.480;8.768;2022-10-16T04:22:00;3.97;;;1.97;;
38264;SDS011;24062;47.480;8.768;2022-10-16T04:24:27;3.53;;;1.73;;
38264;SDS011;24062;47.480;8.768;2022-10-16T04:26:54;5.03;;;1.60;;
38264;SDS011;24062;47.480;8.768;2022-10-16T04:29:21;6.80;;;1.90;;
38264;SDS011;24062;47.480;8.768;2022-10-16T04:31:49;2.90;;;1.60;;
38264;SDS011;24062;47.480;8.768;2022-10-16T04:34:16;5.57;;;2.20;;
38264;SDS011;24062;47.480;8.768;2022-10-16T04:36:42;4.70;;;2.07;;
38264;SDS011;24062;47.480;8.768;2022-10-16T04:39:09;5.33;;;1.70;;
38264;SDS011;24062;47.480;8.768;2022-10-16T04:41:36;4.03;;;1.90;;
38264;SDS011;24062;47.480;8.768;2022-10-16T04:44:03;2.67;;;1.60;;
38264;SDS011;24062;47.480;8.768;2022-10-16T04:46:30;2.50;;;2.00;;
38264;SDS011;24062;47.480;8.768;2022-10-16T04:48:59;3.73;;;1.83;;
38264;SDS011;24062;47.480;8.768;2022-10-16T04:51:26;3.60;;;1.73;;
38264;SDS011;24062;47.480;8.768;2022-10-16T04:53:53;5.00;;;1.57;;
38264;SDS011;24062;47.480;8.768;2022-10-16T04:56:20;3.40;;;1.83;;
38264;SDS011;24062;47.480;8.768;2022-10-16T04:58:47;2.63;;;2.13;;
38264;SDS011;24062;47.480;8.768;2022-10-16T05:01:14;4.53;;;1.90;;
38264;SDS011;24062;47.480;8.768;2022-10-16T05:03:42;5.07;;;1.63;;
38264;SDS011;24062;47.480;8.768;2022-10-16T05:06:10;3.00;;;1.90;;
38264;SDS011;24062;47.480;8.768;2022-10-16T05:08:37;5.00;;;1.80;;
38264;SDS011;24062;47.480;8.768;2022-10-16T05:11:04;6.33;;;1.73;;
38264;SDS011;24062;47.480;8.768;2022-10-16T05:13:31;5.47;;;1.23;;
38264;SDS011;24062;47.480;8.768;2022-10-16T05:15:58;3.37;;;1.40;;
38264;SDS011;24062;47.480;8.768;2022-10-16T05:18:24;7.87;;;1.80;;
38264;SDS011;24062;47.480;8.768;2022-10-16T05:20:51;4.90;;;1.70;;
38264;SDS011;24062;47.480;8.768;2022-10-16T05:23:19;3.40;;;1.60;;
38264;SDS011;24062;47.480;8.768;2022-10-16T05:25:51;8.90;;;2.30;;
38264;SDS011;24062;47.480;8.768;2022-10-16T05:28:19;3.07;;;2.00;;
38264;SDS011;24062;47.480;8.768;2022-10-16T05:30:46;2.20;;;1.87;;
38264;SDS011;24062;47.480;8.768;2022-10-16T05:33:13;7.13;;;1.90;;
38264;SDS011;24062;47.480;8.768;2022-10-16T05:35:40;5.93;;;2.13;;
38264;SDS011;24062;47.480;8.768;2022-10-16T05:38:07;4.10;;;2.50;;
38264;SDS011;24062;47.480;8.768;2022-10-16T05:40:35;7.40;;;2.10;;
38264;SDS011;24062;47.480;8.768;2022-10-16T05:43:02;2.63;;;1.70;;
38264;SDS011;24062;47.480;8.768;2022-10-16T05:45:30;4.50;;;2.20;;
38264;SDS011;24062;47.480;8.768;2022-10-16T05:47:57;3.00;;;1.70;;
38264;SDS011;24062;47.480;8.768;2022-10-16T05:50:24;3.37;;;1.63;;
38264;SDS011;24062;47.480;8.768;2022-10-16T05:52:50;9.27;;;1.93;;
38264;SDS011;24062;47.480;8.768;2022-10-16T05:55:17;3.30;;;2.27;;
38264;SDS011;24062;47.480;8.768;2022-10-16T05:57:45;4.87;;;1.20;;
38264;SDS011;24062;47.480;8.768;2022-10-16T06:00:12;5.47;;;1.60;;
38264;SDS011;24062;47.480;8.768;2022-10-16T06:02:39;5.73;;;1.73;;
38264;SDS011;24062;47.480;8.768;2022-10-16T06:05:06;2.70;;;1.70;;
38264;SDS011;24062;47.480;8.768;2022-10-16T06:07:34;7.20;;;2.20;;
38264;SDS011;24062;47.480;8.768;2022-10-16T06:10:02;3.20;;;2.07;;
38264;SDS011;24062;47.480;8.768;2022-10-16T06:12:29;6.07;;;1.63;;
38264;SDS011;24062;47.480;8.768;2022-10-16T06:14:57;14.33;;;2.07;;
38264;SDS011;24062;47.480;8.768;2022-10-16T06:17:24;2.80;;;1.70;;
38264;SDS011;24062;47.480;8.768;2022-10-16T06:19:51;5.70;;;1.80;;
38264;SDS011;24062;47.480;8.768;2022-10-16T06:22:18;5.83;;;1.40;;
38264;SDS011;24062;47.480;8.768;2022-10-16T06:24:45;3.60;;;1.80;;
38264;SDS011;24062;47.480;8.768;2022-10-16T06:27:12;8.27;;;2.50;;
38264;SDS011;24062;47.480;8.768;2022-10-16T06:29:39;2.73;;;1.60;;
38264;SDS011;24062;47.480;8.768;2022-10-16T06:32:09;6.97;;;1.60;;
38264;SDS011;24062;47.480;8.768;2022-10-16T06:34:36;2.83;;;1.93;;
38264;SDS011;24062;47.480;8.768;2022-10-16T06:37:05;2.67;;;1.30;;
38264;SDS011;24062;47.480;8.768;2022-10-16T06:39:32;8.33;;;1.50;;
38264;SDS011;24062;47.480;8.768;2022-10-16T06:41:58;7.53;;;1.50;;
38264;SDS011;24062;47.480;8.768;2022-10-16T06:44:25;2.97;;;1.90;;
38264;SDS011;24062;47.480;8.768;2022-10-16T06:46:52;7.00;;;2.00;;
38264;SDS011;24062;47.480;8.768;2022-10-16T06:49:20;4.07;;;1.63;;
38264;SDS011;24062;47.480;8.768;2022-10-16T06:51:48;6.83;;;2.17;;
38264;SDS011;24062;47.480;8.768;2022-10-16T06:54:15;5.20;;;2.10;;
38264;SDS011;24062;47.480;8.768;2022-10-16T06:56:42;3.13;;;1.77;;
38264;SDS011;24062;47.480;8.768;2022-10-16T06:59:09;4.43;;;1.80;;
38264;SDS011;24062;47.480;8.768;2022-10-16T07:01:36;6.17;;;2.20;;
38264;SDS011;24062;47.480;8.768;2022-10-16T07:04:03;2.90;;;1.93;;
38264;SDS011;24062;47.480;8.768;2022-10-16T07:06:32;4.20;;;1.93;;
38264;SDS011;24062;47.480;8.768;2022-10-16T07:09:01;3.30;;;1.80;;
38264;SDS011;24062;47.480;8.768;2022-10-16T07:11:30;3.37;;;2.50;;
38264;SDS011;24062;47.480;8.768;2022-10-16T07:13:57;7.33;;;2.60;;
38264;SDS011;24062;47.480;8.768;2022-10-16T07:16:25;6.50;;;2.40;;
38264;SDS011;24062;47.480;8.768;2022-10-16T07:18:53;3.70;;;2.50;;
38264;SDS011;24062;47.480;8.768;2022-10-16T07:21:23;3.33;;;2.40;;
38264;SDS011;24062;47.480;8.768;2022-10-16T07:23:53;5.63;;;2.00;;
38264;SDS011;24062;47.480;8.768;2022-10-16T07:26:20;8.00;;;1.90;;
38264;SDS011;24062;47.480;8.768;2022-10-16T07:28:48;6.23;;;4.73;;
38264;SDS011;24062;47.480;8.768;2022-10-16T07:31:16;4.90;;;3.50;;
38264;SDS011;24062;47.480;8.768;2022-10-16T07:33:44;6.73;;;4.23;;
38264;SDS011;24062;47.480;8.768;2022-10-16T07:36:13;6.93;;;3.63;;
38264;SDS011;24062;47.480;8.768;2022-10-16T07:38:41;6.40;;;4.03;;
38264;SDS011;24062;47.480;8.768;2022-10-16T07:41:10;5.60;;;3.33;;
38264;SDS011;24062;47.480;8.768;2022-10-16T07:43:38;10.00;;;3.53;;
38264;SDS011;24062;47.480;8.768;2022-10-16T07:46:05;10.93;;;3.60;;
38264;SDS011;24062;47.480;8.768;2022-10-16T07:48:33;8.77;;;3.23;;
38264;SDS011;24062;47.480;8.768;2022-10-16T07:51:01;5.80;;;2.70;;
38264;SDS011;24062;47.480;8.768;2022-10-16T07:53:30;2.90;;;2.33;;
38264;SDS011;24062;47.480;8.768;2022-10-16T07:55:58;4.10;;;1.97;;
38264;SDS011;24062;47.480;8.768;2022-10-16T07:58:27;4.07;;;1.57;;
38264;SDS011;24062;47.480;8.768;2022-10-16T08:00:54;4.53;;;1.53;;
38264;SDS011;24062;47.480;8.768;2022-10-16T08:03:21;4.23;;;1.93;;
38264;SDS011;24062;47.480;8.768;2022-10-16T08:05:48;4.80;;;1.33;;
38264;SDS011;24062;47.480;8.768;2022-10-16T08:08:15;2.27;;;1.37;;
38264;SDS011;24062;47.480;8.768;2022-10-16T08:10:43;6.17;;;1.43;;
38264;SDS011;24062;47.480;8.768;2022-10-16T08:13:11;1.87;;;1.10;;
38264;SDS011;24062;47.480;8.768;2022-10-16T08:15:41;2.80;;;1.10;;
38264;SDS011;24062;47.480;8.768;2022-10-16T08:18:09;4.90;;;0.90;;
38264;SDS011;24062;47.480;8.768;2022-10-16T08:20:36;3.70;;;1.30;;
38264;SDS011;24062;47.480;8.768;2022-10-16T08:23:03;4.60;;;1.00;;
38264;SDS011;24062;47.480;8.768;2022-10-16T08:25:30;1.80;;;0.87;;
38264;SDS011;24062;47.480;8.768;2022-10-16T08:27:57;2.13;;;1.10;;
38264;SDS011;24062;47.480;8.768;2022-10-16T08:30:24;1.50;;;0.80;;
38264;SDS011;24062;47.480;8.768;2022-10-16T08:32:52;2.17;;;0.60;;
38264;SDS011;24062;47.480;8.768;2022-10-16T08:35:19;1.70;;;1.00;;
38264;SDS011;24062;47.480;8.768;2022-10-16T08:37:46;6.73;;;1.43;;
38264;SDS011;24062;47.480;8.768;2022-10-16T08:40:16;1.53;;;0.83;;
38264;SDS011;24062;47.480;8.768;2022-10-16T08:46:11;3.07;;;1.50;;
38264;SDS011;24062;47.480;8.768;2022-10-16T08:48:52;4.40;;;1.63;;
38264;SDS011;24062;47.480;8.768;2022-10-16T08:51:22;1.60;;;1.00;;
38264;SDS011;24062;47.480;8.768;2022-10-16T08:53:52;3.80;;;1.70;;
38264;SDS011;24062;47.480;8.768;2022-10-16T08:56:21;2.13;;;1.30;;
38264;SDS011;24062;47.480;8.768;2022-10-16T08:58:48;3.10;;;2.03;;
38264;SDS011;24062;47.480;8.768;2022-10-16T09:01:17;4.90;;;1.50;;
38264;SDS011;24062;47.480;8.768;2022-10-16T09:07:08;2.57;;;1.47;;
38264;SDS011;24062;47.480;8.768;2022-10-16T09:09:51;2.90;;;1.13;;
38264;SDS011;24062;47.480;8.768;2022-10-16T09:12:25;4.13;;;1.50;;
38264;SDS011;24062;47.480;8.768;2022-10-16T09:15:00;5.57;;;1.50;;
38264;SDS011;24062;47.480;8.768;2022-10-16T09:17:37;4.03;;;1.20;;
38264;SDS011;24062;47.480;8.768;2022-10-16T09:20:18;3.10;;;1.50;;
38264;SDS011;24062;47.480;8.768;2022-10-16T09:22:54;2.57;;;1.40;;
38264;SDS011;24062;47.480;8.768;2022-10-16T09:25:27;6.03;;;1.23;;
38264;SDS011;24062;47.480;8.768;2022-10-16T09:27:54;6.50;;;1.03;;
38264;SDS011;24062;47.480;8.768;2022-10-16T09:30:22;6.97;;;1.10;;
38264;SDS011;24062;47.480;8.768;2022-10-16T09:32:52;1.97;;;1.20;;
38264;SDS011;24062;47.480;8.768;2022-10-16T09:35:21;2.10;;;1.10;;
38264;SDS011;24062;47.480;8.768;2022-10-16T09:37:52;6.33;;;1.63;;
38264;SDS011;24062;47.480;8.768;2022-10-16T09:40:25;3.30;;;1.20;;
38264;SDS011;24062;47.480;8.768;2022-10-16T09:42:55;2.13;;;1.30;;
38264;SDS011;24062;47.480;8.768;2022-10-16T09:45:28;4.50;;;1.70;;
38264;SDS011;24062;47.480;8.768;2022-10-16T09:47:55;4.87;;;2.23;;
38264;SDS011;24062;47.480;8.768;2022-10-16T09:50:22;3.97;;;1.90;;
38264;SDS011;24062;47.480;8.768;2022-10-16T09:53:03;3.10;;;2.20;;
38264;SDS011;24062;47.480;8.768;2022-10-16T09:55:31;5.80;;;1.83;;
38264;SDS011;24062;47.480;8.768;2022-10-16T09:57:58;5.40;;;1.93;;
38264;SDS011;24062;47.480;8.768;2022-10-16T10:00:25;5.37;;;1.97;;
38264;SDS011;24062;47.480;8.768;2022-10-16T10:02:52;3.50;;;1.90;;
38264;SDS011;24062;47.480;8.768;2022-10-16T10:05:21;3.27;;;1.80;;
38264;SDS011;24062;47.480;8.768;2022-10-16T10:07:54;2.57;;;1.50;;
38264;SDS011;24062;47.480;8.768;2022-10-16T10:10:25;2.60;;;1.53;;
38264;SDS011;24062;47.480;8.768;2022-10-16T10:12:53;3.30;;;1.17;;
38264;SDS011;24062;47.480;8.768;2022-10-16T10:15:21;7.67;;;1.17;;
38264;SDS011;24062;47.480;8.768;2022-10-16T10:17:50;4.50;;;1.47;;
38264;SDS011;24062;47.480;8.768;2022-10-16T10:20:22;3.60;;;1.40;;
38264;SDS011;24062;47.480;8.768;2022-10-16T10:22:51;3.70;;;1.57;;
38264;SDS011;24062;47.480;8.768;2022-10-16T10:31:10;5.40;;;1.67;;
38264;SDS011;24062;47.480;8.768;2022-10-16T10:33:44;4.07;;;1.50;;
38264;SDS011;24062;47.480;8.768;2022-10-16T10:36:18;3.13;;;1.40;;
38264;SDS011;24062;47.480;8.768;2022-10-16T10:38:53;2.67;;;1.23;;
38264;SDS011;24062;47.480;8.768;2022-10-16T10:41:38;2.57;;;1.50;;
38264;SDS011;24062;47.480;8.768;2022-10-16T10:44:25;5.73;;;1.43;;
38264;SDS011;24062;47.480;8.768;2022-10-16T10:47:04;3.10;;;1.53;;
38264;SDS011;24062;47.480;8.768;2022-10-16T10:49:44;5.83;;;1.83;;
38264;SDS011;24062;47.480;8.768;2022-10-16T10:52:26;8.47;;;1.47;;
38264;SDS011;24062;47.480;8.768;2022-10-16T10:55:03;3.13;;;1.30;;
38264;SDS011;24062;47.480;8.768;2022-10-16T10:57:42;6.80;;;1.53;;
38264;SDS011;24062;47.480;8.768;2022-10-16T11:00:20;2.23;;;1.33;;
38264;SDS011;24062;47.480;8.768;2022-10-16T11:02:54;2.70;;;1.40;;
38264;SDS011;24062;47.480;8.768;2022-10-16T11:05:33;3.17;;;1.03;;
38264;SDS011;24062;47.480;8.768;2022-10-16T11:08:07;1.57;;;0.97;;
38264;SDS011;24062;47.480;8.768;2022-10-16T11:10:40;5.20;;;1.13;;
38264;SDS011;24062;47.480;8.768;2022-10-16T11:13:17;4.10;;;1.00;;
38264;SDS011;24062;47.480;8.768;2022-10-16T11:15:51;4.90;;;1.20;;
38264;SDS011;24062;47.480;8.768;2022-10-16T11:18:24;1.90;;;1.30;;
38264;SDS011;24062;47.480;8.768;2022-10-16T11:20:57;3.27;;;1.50;;
38264;SDS011;24062;47.480;8.768;2022-10-16T11:23:30;1.70;;;0.93;;
38264;SDS011;24062;47.480;8.768;2022-10-16T11:26:02;6.07;;;1.47;;
38264;SDS011;24062;47.480;8.768;2022-10-16T11:28:41;5.43;;;1.27;;
38264;SDS011;24062;47.480;8.768;2022-10-16T11:31:12;2.77;;;1.13;;
38264;SDS011;24062;47.480;8.768;2022-10-16T11:33:44;3.43;;;1.40;;
38264;SDS011;24062;47.480;8.768;2022-10-16T11:36:16;2.90;;;1.20;;
38264;SDS011;24062;47.480;8.768;2022-10-16T11:38:48;4.47;;;1.20;;
38264;SDS011;24062;47.480;8.768;2022-10-16T11:41:22;4.00;;;1.30;;
38264;SDS011;24062;47.480;8.768;2022-10-16T11:43:58;6.77;;;1.17;;
38264;SDS011;24062;47.480;8.768;2022-10-16T11:46:32;3.50;;;1.20;;
38264;SDS011;24062;47.480;8.768;2022-10-16T11:49:03;4.30;;;1.50;;
38264;SDS011;24062;47.480;8.768;2022-10-16T11:51:38;3.23;;;1.60;;
38264;SDS011;24062;47.480;8.768;2022-10-16T11:54:08;4.13;;;1.33;;
38264;SDS011;24062;47.480;8.768;2022-10-16T11:56:46;8.33;;;1.23;;
38264;SDS011;24062;47.480;8.768;2022-10-16T11:59:20;3.63;;;1.20;;
38264;SDS011;24062;47.480;8.768;2022-10-16T12:01:56;3.93;;;1.23;;
38264;SDS011;24062;47.480;8.768;2022-10-16T12:04:40;2.00;;;0.80;;
38264;SDS011;24062;47.480;8.768;2022-10-16T12:07:13;3.90;;;1.30;;
38264;SDS011;24062;47.480;8.768;2022-10-16T12:09:43;1.73;;;1.30;;
38264;SDS011;24062;47.480;8.768;2022-10-16T12:15:01;3.13;;;1.30;;
38264;SDS011;24062;47.480;8.768;2022-10-16T12:17:43;4.03;;;1.20;;
38264;SDS011;24062;47.480;8.768;2022-10-16T12:20:24;1.90;;;1.03;;
38264;SDS011;24062;47.480;8.768;2022-10-16T12:22:55;2.23;;;1.30;;
38264;SDS011;24062;47.480;8.768;2022-10-16T12:25:25;2.63;;;1.37;;
38264;SDS011;24062;47.480;8.768;2022-10-16T12:27:54;5.13;;;1.40;;
38264;SDS011;24062;47.480;8.768;2022-10-16T12:30:24;3.87;;;1.53;;
38264;SDS011;24062;47.480;8.768;2022-10-16T12:32:53;2.10;;;1.30;;
38264;SDS011;24062;47.480;8.768;2022-10-16T12:35:22;5.97;;;1.17;;
38264;SDS011;24062;47.480;8.768;2022-10-16T12:37:51;3.33;;;1.38;;
38264;SDS011;24062;47.480;8.768;2022-10-16T12:40:26;3.17;;;1.42;;
38264;SDS011;24062;47.480;8.768;2022-10-16T12:42:55;2.40;;;1.20;;
38264;SDS011;24062;47.480;8.768;2022-10-16T12:45:28;2.20;;;1.40;;
38264;SDS011;24062;47.480;8.768;2022-10-16T12:47:56;4.50;;;1.10;;
38264;SDS011;24062;47.480;8.768;2022-10-16T12:50:25;2.08;;;1.08;;
38264;SDS011;24062;47.480;8.768;2022-10-16T12:52:59;2.53;;;1.20;;
38264;SDS011;24062;47.480;8.768;2022-10-16T12:55:27;4.65;;;1.45;;
38264;SDS011;24062;47.480;8.768;2022-10-16T12:58:09;2.42;;;1.30;;
38264;SDS011;24062;47.480;8.768;2022-10-16T13:00:57;2.45;;;1.20;;
38264;SDS011;24062;47.480;8.768;2022-10-16T13:06:24;3.72;;;1.17;;
38264;SDS011;24062;47.480;8.768;2022-10-16T13:09:05;6.85;;;1.17;;
38264;SDS011;24062;47.480;8.768;2022-10-16T13:11:58;1.90;;;1.30;;
38264;SDS011;24062;47.480;8.768;2022-10-16T13:14:46;2.35;;;1.38;;
38264;SDS011;24062;47.480;8.768;2022-10-16T13:17:38;1.90;;;0.93;;
38264;SDS011;24062;47.480;8.768;2022-10-16T13:20:12;2.05;;;1.30;;
38264;SDS011;24062;47.480;8.768;2022-10-16T13:22:49;4.50;;;1.65;;
38264;SDS011;24062;47.480;8.768;2022-10-16T13:25:23;1.70;;;1.00;;
38264;SDS011;24062;47.480;8.768;2022-10-16T13:27:59;11.32;;;1.50;;
38264;SDS011;24062;47.480;8.768;2022-10-16T13:30:28;4.28;;;1.50;;
38264;SDS011;24062;47.480;8.768;2022-10-16T13:32:59;3.33;;;1.85;;
38264;SDS011;24062;47.480;8.768;2022-10-16T13:35:30;2.70;;;1.40;;
38264;SDS011;24062;47.480;8.768;2022-10-16T13:38:05;4.35;;;1.17;;
38264;SDS011;24062;47.480;8.768;2022-10-16T13:40:47;3.40;;;1.20;;
38264;SDS011;24062;47.480;8.768;2022-10-16T13:43:16;3.35;;;1.15;;
38264;SDS011;24062;47.480;8.768;2022-10-16T13:45:52;2.20;;;1.20;;
38264;SDS011;24062;47.480;8.768;2022-10-16T13:48:21;1.60;;;0.90;;
38264;SDS011;24062;47.480;8.768;2022-10-16T13:50:57;5.22;;;1.60;;
38264;SDS011;24062;47.480;8.768;2022-10-16T13:53:25;5.57;;;1.23;;
38264;SDS011;24062;47.480;8.768;2022-10-16T13:55:52;4.85;;;1.25;;
38264;SDS011;24062;47.480;8.768;2022-10-16T13:58:19;2.35;;;0.98;;
38264;SDS011;24062;47.480;8.768;2022-10-16T14:00:53;5.07;;;1.00;;
38264;SDS011;24062;47.480;8.768;2022-10-16T14:03:24;2.85;;;0.82;;
38264;SDS011;24062;47.480;8.768;2022-10-16T14:05:52;2.05;;;1.20;;
38264;SDS011;24062;47.480;8.768;2022-10-16T14:08:22;1.67;;;0.98;;
38264;SDS011;24062;47.480;8.768;2022-10-16T14:10:51;5.53;;;1.20;;
38264;SDS011;24062;47.480;8.768;2022-10-16T14:13:22;1.70;;;1.05;;
38264;SDS011;24062;47.480;8.768;2022-10-16T14:15:55;1.50;;;0.80;;
38264;SDS011;24062;47.480;8.768;2022-10-16T14:18:25;2.08;;;0.80;;
38264;SDS011;24062;47.480;8.768;2022-10-16T14:20:53;3.88;;;1.20;;
38264;SDS011;24062;47.480;8.768;2022-10-16T14:23:22;4.28;;;1.15;;
38264;SDS011;24062;47.480;8.768;2022-10-16T14:25:54;3.78;;;1.00;;
38264;SDS011;24062;47.480;8.768;2022-10-16T14:28:32;6.30;;;1.23;;
38264;SDS011;24062;47.480;8.768;2022-10-16T14:30:59;7.03;;;1.48;;
38264;SDS011;24062;47.480;8.768;2022-10-16T14:33:32;3.72;;;1.00;;
38264;SDS011;24062;47.480;8.768;2022-10-16T14:36:01;3.10;;;1.10;;
38264;SDS011;24062;47.480;8.768;2022-10-16T14:38:30;4.70;;;1.20;;
38264;SDS011;24062;47.480;8.768;2022-10-16T14:40:59;3.53;;;1.10;;
38264;SDS011;24062;47.480;8.768;2022-10-16T14:43:29;5.07;;;1.20;;
38264;SDS011;24062;47.480;8.768;2022-10-16T14:45:59;5.65;;;1.10;;
38264;SDS011;24062;47.480;8.768;2022-10-16T14:48:29;2.58;;;0.95;;
38264;SDS011;24062;47.480;8.768;2022-10-16T14:50:58;5.43;;;1.13;;
38264;SDS011;24062;47.480;8.768;2022-10-16T14:53:25;2.28;;;0.85;;
38264;SDS011;24062;47.480;8.768;2022-10-16T14:55:51;2.30;;;0.88;;
38264;SDS011;24062;47.480;8.768;2022-10-16T14:58:19;2.83;;;1.17;;
38264;SDS011;24062;47.480;8.768;2022-10-16T15:00:48;5.88;;;1.00;;
38264;SDS011;24062;47.480;8.768;2022-10-16T15:03:15;1.60;;;0.90;;
38264;SDS011;24062;47.480;8.768;2022-10-16T15:05:43;2.53;;;0.95;;
38264;SDS011;24062;47.480;8.768;2022-10-16T15:08:10;4.82;;;0.90;;
38264;SDS011;24062;47.480;8.768;2022-10-16T15:10:38;1.63;;;0.90;;
38264;SDS011;24062;47.480;8.768;2022-10-16T15:13:08;1.67;;;1.10;;
38264;SDS011;24062;47.480;8.768;2022-10-16T15:15:38;3.45;;;1.00;;
38264;SDS011;24062;47.480;8.768;2022-10-16T15:18:08;2.65;;;0.93;;
38264;SDS011;24062;47.480;8.768;2022-10-16T15:20:36;3.35;;;0.95;;
38264;SDS011;24062;47.480;8.768;2022-10-16T15:23:06;6.22;;;1.30;;